sensor_id;sensor_type;location;lat;lon;timestamp;pressure;altitude;pressure_sealevel;temperature;humidity
20021;BME280;10171;42.694;23.318;2023-06-10T00:01:09;94653.53;;;19.58;76.54
20021;BME280;10171;42.694;23.318;2023-06-10T00:03:35;94658.91;;;19.57;77.16
20021;BME280;10171;42.694;23.318;2023-06-10T00:06:01;94669.59;;;19.62;77.02
20021;BME280;10171;42.694;23.318;2023-06-10T00:08:27;94669.59;;;19.54;77.46
20021;BME280;10171;42.694;23.318;2023-06-10T00:10:54;94661.03;;;19.45;77.01
20021;BME280;10171;42.694;23.318;2023-06-10T00:13:19;94664.75;;;19.51;76.74
20021;BME280;10171;42.694;23.318;2023-06-10T00:15:45;94662.31;;;19.41;77.12
20021;BME280;10171;42.694;23.318;2023-06-10T00:18:10;94666.72;;;19.41;77.72
20021;BME280;10171;42.694;23.318;2023-06-10T00:20:37;94662.66;;;19.30;78.07
20021;BME280;10171;42.694;23.318;2023-06-10T00:23:03;94662.50;;;19.32;78.32
20021;BME280;10171;42.694;23.318;2023-06-10T00:25:28;94668.31;;;19.50;77.92
20021;BME280;10171;42.694;23.318;2023-06-10T00:27:55;94659.34;;;19.68;77.38
20021;BME280;10171;42.694;23.318;2023-06-10T00:30:20;94665.00;;;19.79;76.52
20021;BME280;10171;42.694;23.318;2023-06-10T00:32:46;94663.34;;;19.94;76.12
20021;BME280;10171;42.694;23.318;2023-06-10T00:35:11;94661.56;;;19.87;76.09
20021;BME280;10171;42.694;23.318;2023-06-10T00:37:37;94666.56;;;19.96;76.54
20021;BME280;10171;42.694;23.318;2023-06-10T00:40:03;94661.88;;;20.00;76.24
20021;BME280;10171;42.694;23.318;2023-06-10T00:42:29;94664.63;;;19.98;75.80
20021;BME280;10171;42.694;23.318;2023-06-10T00:44:55;94650.72;;;19.99;75.90
20021;BME280;10171;42.694;23.318;2023-06-10T00:47:21;94660.53;;;20.12;75.59
20021;BME280;10171;42.694;23.318;2023-06-10T00:49:47;94657.78;;;20.13;74.80
20021;BME280;10171;42.694;23.318;2023-06-10T00:52:14;94663.31;;;20.10;75.65
20021;BME280;10171;42.694;23.318;2023-06-10T00:54:41;94645.53;;;19.99;75.36
20021;BME280;10171;42.694;23.318;2023-06-10T00:57:07;94664.47;;;20.00;75.82
20021;BME280;10171;42.694;23.318;2023-06-10T00:59:33;94664.75;;;20.05;76.54
20021;BME280;10171;42.694;23.318;2023-06-10T01:01:59;94662.81;;;20.07;76.07
20021;BME280;10171;42.694;23.318;2023-06-10T01:04:26;94668.28;;;20.20;75.24
20021;BME280;10171;42.694;23.318;2023-06-10T01:09:39;94675.44;;;20.10;75.56
20021;BME280;10171;42.694;23.318;2023-06-10T01:14:59;94668.31;;;20.12;75.92
20021;BME280;10171;42.694;23.318;2023-06-10T01:17:25;94681.13;;;20.13;76.11
20021;BME280;10171;42.694;23.318;2023-06-10T01:19:58;94674.50;;;20.03;76.01
20021;BME280;10171;42.694;23.318;2023-06-10T01:22:25;94681.81;;;19.91;76.32
20021;BME280;10171;42.694;23.318;2023-06-10T01:24:54;94673.53;;;19.96;76.94
20021;BME280;10171;42.694;23.318;2023-06-10T01:27:26;94666.88;;;20.09;76.04
20021;BME280;10171;42.694;23.318;2023-06-10T01:29:59;94668.56;;;20.25;75.48
20021;BME280;10171;42.694;23.318;2023-06-10T01:32:40;94655.81;;;20.15;75.06
20021;BME280;10171;42.694;23.318;2023-06-10T01:35:08;94673.00;;;20.16;75.94
20021;BME280;10171;42.694;23.318;2023-06-10T01:37:34;94660.41;;;20.05;76.22
20021;BME280;10171;42.694;23.318;2023-06-10T01:40:02;94669.16;;;20.04;76.18
20021;BME280;10171;42.694;23.318;2023-06-10T01:42:31;94666.38;;;19.98;76.48
20021;BME280;10171;42.694;23.318;2023-06-10T01:44:57;94667.22;;;19.90;77.41
20021;BME280;10171;42.694;23.318;2023-06-10T01:47:23;94657.72;;;19.75;78.13
20021;BME280;10171;42.694;23.318;2023-06-10T01:49:48;94667.53;;;19.95;77.70
20021;BME280;10171;42.694;23.318;2023-06-10T01:52:14;94642.59;;;19.94;77.25
20021;BME280;10171;42.694;23.318;2023-06-10T01:54:39;94657.81;;;19.97;77.12
20021;BME280;10171;42.694;23.318;2023-06-10T01:57:05;94648.56;;;20.03;77.17
20021;BME280;10171;42.694;23.318;2023-06-10T01:59:31;94649.22;;;20.05;77.10
20021;BME280;10171;42.694;23.318;2023-06-10T02:01:57;94636.88;;;19.99;77.13
20021;BME280;10171;42.694;23.318;2023-06-10T02:04:22;94631.59;;;20.00;76.68
20021;BME280;10171;42.694;23.318;2023-06-10T02:06:48;94642.06;;;20.07;76.76
20021;BME280;10171;42.694;23.318;2023-06-10T02:09:13;94646.16;;;20.01;76.38
20021;BME280;10171;42.694;23.318;2023-06-10T02:11:39;94642.25;;;20.05;77.00
20021;BME280;10171;42.694;23.318;2023-06-10T02:14:04;94636.75;;;19.92;76.67
20021;BME280;10171;42.694;23.318;2023-06-10T02:16:30;94644.31;;;20.10;76.29
20021;BME280;10171;42.694;23.318;2023-06-10T02:18:56;94645.19;;;19.94;77.25
20021;BME280;10171;42.694;23.318;2023-06-10T02:21:22;94633.03;;;19.87;77.43
20021;BME280;10171;42.694;23.318;2023-06-10T02:23:48;94636.78;;;19.84;77.64
20021;BME280;10171;42.694;23.318;2023-06-10T02:26:13;94637.06;;;19.97;77.35
20021;BME280;10171;42.694;23.318;2023-06-10T02:28:42;94633.00;;;20.03;76.50
20021;BME280;10171;42.694;23.318;2023-06-10T02:31:08;94632.84;;;20.04;76.96
20021;BME280;10171;42.694;23.318;2023-06-10T02:33:33;94625.09;;;19.96;76.62
20021;BME280;10171;42.694;23.318;2023-06-10T02:35:59;94628.31;;;19.98;76.78
20021;BME280;10171;42.694;23.318;2023-06-10T02:38:24;94622.78;;;20.09;76.47
20021;BME280;10171;42.694;23.318;2023-06-10T02:40:50;94624.84;;;20.14;75.87
20021;BME280;10171;42.694;23.318;2023-06-10T02:43:15;94622.56;;;20.19;75.81
20021;BME280;10171;42.694;23.318;2023-06-10T02:45:40;94610.72;;;20.24;74.67
20021;BME280;10171;42.694;23.318;2023-06-10T02:48:06;94619.81;;;20.20;75.49
20021;BME280;10171;42.694;23.318;2023-06-10T02:50:31;94617.56;;;20.17;75.21
20021;BME280;10171;42.694;23.318;2023-06-10T02:52:57;94612.47;;;20.24;75.05
20021;BME280;10171;42.694;23.318;2023-06-10T02:55:23;94607.00;;;20.19;75.34
20021;BME280;10171;42.694;23.318;2023-06-10T02:57:52;94616.88;;;20.23;75.25
20021;BME280;10171;42.694;23.318;2023-06-10T03:00:20;94618.94;;;20.28;75.41
20021;BME280;10171;42.694;23.318;2023-06-10T03:02:46;94608.81;;;20.18;75.92
20021;BME280;10171;42.694;23.318;2023-06-10T03:05:12;94622.09;;;20.15;76.74
20021;BME280;10171;42.694;23.318;2023-06-10T03:07:38;94620.50;;;20.14;76.65
20021;BME280;10171;42.694;23.318;2023-06-10T03:10:05;94618.09;;;20.05;77.32
20021;BME280;10171;42.694;23.318;2023-06-10T03:12:31;94628.00;;;20.01;78.09
20021;BME280;10171;42.694;23.318;2023-06-10T03:14:56;94617.94;;;19.98;78.08
20021;BME280;10171;42.694;23.318;2023-06-10T03:17:22;94628.00;;;19.93;79.40
20021;BME280;10171;42.694;23.318;2023-06-10T03:19:47;94628.16;;;19.92;79.64
20021;BME280;10171;42.694;23.318;2023-06-10T03:22:14;94631.59;;;19.92;79.46
20021;BME280;10171;42.694;23.318;2023-06-10T03:24:40;94640.50;;;19.90;80.30
20021;BME280;10171;42.694;23.318;2023-06-10T03:27:07;94635.63;;;19.87;80.60
20021;BME280;10171;42.694;23.318;2023-06-10T03:29:36;94637.75;;;19.91;80.90
20021;BME280;10171;42.694;23.318;2023-06-10T03:32:02;94649.41;;;19.95;81.20
20021;BME280;10171;42.694;23.318;2023-06-10T03:34:28;94635.03;;;19.77;82.17
20021;BME280;10171;42.694;23.318;2023-06-10T03:36:55;94649.13;;;19.82;82.35
20021;BME280;10171;42.694;23.318;2023-06-10T03:39:20;94641.06;;;19.69;82.53
20021;BME280;10171;42.694;23.318;2023-06-10T03:41:46;94640.38;;;19.75;82.69
20021;BME280;10171;42.694;23.318;2023-06-10T03:44:11;94646.56;;;19.74;83.12
20021;BME280;10171;42.694;23.318;2023-06-10T03:46:37;94650.44;;;19.78;83.28
20021;BME280;10171;42.694;23.318;2023-06-10T03:49:03;94656.91;;;19.74;83.61
20021;BME280;10171;42.694;23.318;2023-06-10T03:51:29;94647.03;;;19.70;82.69
20021;BME280;10171;42.694;23.318;2023-06-10T03:53:55;94644.78;;;19.67;82.86
20021;BME280;10171;42.694;23.318;2023-06-10T03:56:20;94648.66;;;19.63;81.84
20021;BME280;10171;42.694;23.318;2023-06-10T03:58:45;94645.00;;;19.50;82.24
20021;BME280;10171;42.694;23.318;2023-06-10T04:01:11;94648.06;;;19.45;82.27
20021;BME280;10171;42.694;23.318;2023-06-10T04:03:38;94646.78;;;19.41;82.41
20021;BME280;10171;42.694;23.318;2023-06-10T04:06:05;94644.84;;;19.35;82.50
20021;BME280;10171;42.694;23.318;2023-06-10T04:08:30;94653.78;;;19.33;82.55
20021;BME280;10171;42.694;23.318;2023-06-10T04:10:56;94647.94;;;19.23;83.22
20021;BME280;10171;42.694;23.318;2023-06-10T04:13:23;94650.38;;;19.24;83.25
20021;BME280;10171;42.694;23.318;2023-06-10T04:15:48;94654.41;;;19.27;83.22
20021;BME280;10171;42.694;23.318;2023-06-10T04:18:14;94647.63;;;19.26;83.31
20021;BME280;10171;42.694;23.318;2023-06-10T04:20:40;94660.56;;;19.26;82.89
20021;BME280;10171;42.694;23.318;2023-06-10T04:23:05;94663.47;;;19.31;82.48
20021;BME280;10171;42.694;23.318;2023-06-10T04:25:31;94656.69;;;19.30;82.00
20021;BME280;10171;42.694;23.318;2023-06-10T04:27:57;94648.59;;;19.25;81.62
20021;BME280;10171;42.694;23.318;2023-06-10T04:30:22;94650.38;;;19.24;81.37
20021;BME280;10171;42.694;23.318;2023-06-10T04:32:47;94657.66;;;19.29;81.71
20021;BME280;10171;42.694;23.318;2023-06-10T04:35:14;94651.19;;;19.33;81.04
20021;BME280;10171;42.694;23.318;2023-06-10T04:37:40;94641.13;;;19.46;80.81
20021;BME280;10171;42.694;23.318;2023-06-10T04:40:07;94660.03;;;19.54;81.41
20021;BME280;10171;42.694;23.318;2023-06-10T04:42:32;94652.75;;;19.58;81.32
20021;BME280;10171;42.694;23.318;2023-06-10T04:44:58;94652.88;;;19.64;80.76
20021;BME280;10171;42.694;23.318;2023-06-10T04:47:23;94641.38;;;19.67;79.73
20021;BME280;10171;42.694;23.318;2023-06-10T04:49:49;94656.28;;;19.65;80.79
20021;BME280;10171;42.694;23.318;2023-06-10T04:52:14;94657.25;;;19.71;81.33
20021;BME280;10171;42.694;23.318;2023-06-10T04:54:40;94639.56;;;19.75;80.45
20021;BME280;10171;42.694;23.318;2023-06-10T04:57:06;94648.94;;;19.84;80.45
20021;BME280;10171;42.694;23.318;2023-06-10T04:59:33;94649.28;;;19.73;81.72
20021;BME280;10171;42.694;23.318;2023-06-10T05:02:03;94652.25;;;19.62;81.94
20021;BME280;10171;42.694;23.318;2023-06-10T05:04:28;94651.13;;;19.57;81.93
20021;BME280;10171;42.694;23.318;2023-06-10T05:06:54;94654.19;;;19.60;82.22
20021;BME280;10171;42.694;23.318;2023-06-10T05:09:20;94652.22;;;19.70;81.22
20021;BME280;10171;42.694;23.318;2023-06-10T05:14:11;94655.22;;;19.97;nan
20021;BME280;10171;42.694;23.318;2023-06-10T05:16:37;94640.38;;;19.75;nan
20021;BME280;10171;42.694;23.318;2023-06-10T05:19:03;94645.25;;;19.78;nan
20021;BME280;10171;42.694;23.318;2023-06-10T05:21:29;94637.75;;;19.91;nan
20021;BME280;10171;42.694;23.318;2023-06-10T05:23:55;94645.50;;;20.07;nan
20021;BME280;10171;42.694;23.318;2023-06-10T05:26:21;94650.38;;;20.02;nan
20021;BME280;10171;42.694;23.318;2023-06-10T05:48:09;94648.16;;;20.52;nan
20021;BME280;10171;42.694;23.318;2023-06-10T05:50:35;94659.22;;;20.46;nan
20021;BME280;10171;42.694;23.318;2023-06-10T05:53:04;94653.38;;;20.52;nan
20021;BME280;10171;42.694;23.318;2023-06-10T05:55:32;94667.31;;;20.51;nan
20021;BME280;10171;42.694;23.318;2023-06-10T05:57:58;94656.13;;;20.51;nan
20021;BME280;10171;42.694;23.318;2023-06-10T06:00:25;94659.47;;;20.59;nan
20021;BME280;10171;42.694;23.318;2023-06-10T06:02:51;94670.25;;;20.71;nan
20021;BME280;10171;42.694;23.318;2023-06-10T06:05:17;94667.22;;;20.67;nan
20021;BME280;10171;42.694;23.318;2023-06-10T06:07:43;94661.16;;;20.75;nan
20021;BME280;10171;42.694;23.318;2023-06-10T06:10:08;94659.34;;;20.83;nan
20021;BME280;10171;42.694;23.318;2023-06-10T06:12:34;94662.13;;;20.74;nan
20021;BME280;10171;42.694;23.318;2023-06-10T06:14:59;94662.03;;;20.67;nan
20021;BME280;10171;42.694;23.318;2023-06-10T06:17:25;94662.19;;;20.96;nan
20021;BME280;10171;42.694;23.318;2023-06-10T06:19:50;94658.31;;;20.92;nan
20021;BME280;10171;42.694;23.318;2023-06-10T06:22:17;94666.56;;;20.96;nan
20021;BME280;10171;42.694;23.318;2023-06-10T06:24:46;94662.63;;;21.00;nan
20021;BME280;10171;42.694;23.318;2023-06-10T06:27:12;94668.94;;;21.05;nan
20021;BME280;10171;42.694;23.318;2023-06-10T06:29:37;94675.81;;;20.98;nan
20021;BME280;10171;42.694;23.318;2023-06-10T06:32:03;94676.94;;;20.96;nan
20021;BME280;10171;42.694;23.318;2023-06-10T06:34:29;94677.28;;;20.93;nan
20021;BME280;10171;42.694;23.318;2023-06-10T06:36:54;94671.31;;;20.92;nan
20021;BME280;10171;42.694;23.318;2023-06-10T06:39:19;94672.03;;;21.01;nan
20021;BME280;10171;42.694;23.318;2023-06-10T06:41:45;94669.28;;;21.02;nan
20021;BME280;10171;42.694;23.318;2023-06-10T06:44:10;94656.69;;;20.91;nan
20021;BME280;10171;42.694;23.318;2023-06-10T06:46:36;94650.53;;;20.92;nan
20021;BME280;10171;42.694;23.318;2023-06-10T06:49:01;94646.88;;;21.01;nan
20021;BME280;10171;42.694;23.318;2023-06-10T06:51:27;94649.00;;;21.20;nan
20021;BME280;10171;42.694;23.318;2023-06-10T06:53:52;94652.22;;;21.22;nan
20021;BME280;10171;42.694;23.318;2023-06-10T06:56:22;94644.81;;;21.33;nan
20021;BME280;10171;42.694;23.318;2023-06-10T06:58:48;94643.53;;;21.29;nan
20021;BME280;10171;42.694;23.318;2023-06-10T07:01:13;94659.72;;;21.54;nan
20021;BME280;10171;42.694;23.318;2023-06-10T07:03:39;94640.88;;;21.37;nan
20021;BME280;10171;42.694;23.318;2023-06-10T07:06:05;94653.06;;;21.37;nan
20021;BME280;10171;42.694;23.318;2023-06-10T07:08:30;94642.91;;;21.27;nan
20021;BME280;10171;42.694;23.318;2023-06-10T07:10:56;94638.56;;;21.42;nan
20021;BME280;10171;42.694;23.318;2023-06-10T07:13:21;94656.47;;;21.60;nan
20021;BME280;10171;42.694;23.318;2023-06-10T07:15:47;94648.69;;;21.52;nan
20021;BME280;10171;42.694;23.318;2023-06-10T07:18:12;94645.28;;;21.51;nan
20021;BME280;10171;42.694;23.318;2023-06-10T07:20:38;94634.19;;;21.43;nan
20021;BME280;10171;42.694;23.318;2023-06-10T07:25:28;94640.78;;;21.31;nan
20021;BME280;10171;42.694;23.318;2023-06-10T07:27:54;94629.91;;;21.27;nan
20021;BME280;10171;42.694;23.318;2023-06-10T07:30:19;94634.81;;;21.45;nan
20021;BME280;10171;42.694;23.318;2023-06-10T07:32:45;94642.19;;;21.70;nan
20021;BME280;10171;42.694;23.318;2023-06-10T07:35:11;94616.81;;;21.58;nan
20021;BME280;10171;42.694;23.318;2023-06-10T07:37:37;94627.78;;;21.68;nan
20021;BME280;10171;42.694;23.318;2023-06-10T07:40:03;94647.94;;;21.95;nan
20021;BME280;10171;42.694;23.318;2023-06-10T07:42:29;94642.72;;;22.09;nan
20021;BME280;10171;42.694;23.318;2023-06-10T07:44:54;94636.19;;;21.99;nan
20021;BME280;10171;42.694;23.318;2023-06-10T07:47:20;94640.38;;;22.14;nan
20021;BME280;10171;42.694;23.318;2023-06-10T07:49:45;94625.13;;;22.11;nan
20021;BME280;10171;42.694;23.318;2023-06-10T07:52:10;94633.66;;;22.05;nan
20021;BME280;10171;42.694;23.318;2023-06-10T07:54:36;94629.91;;;21.93;nan
20021;BME280;10171;42.694;23.318;2023-06-10T07:57:02;94626.69;;;21.91;nan
20021;BME280;10171;42.694;23.318;2023-06-10T07:59:27;94634.66;;;22.04;nan
20021;BME280;10171;42.694;23.318;2023-06-10T08:01:53;94627.22;;;22.16;nan
20021;BME280;10171;42.694;23.318;2023-06-10T08:06:44;94627.97;;;22.45;nan
20021;BME280;10171;42.694;23.318;2023-06-10T08:09:09;94615.16;;;22.43;nan
20021;BME280;10171;42.694;23.318;2023-06-10T08:11:35;94625.34;;;22.59;nan
20021;BME280;10171;42.694;23.318;2023-06-10T08:14:01;94627.81;;;22.67;nan
20021;BME280;10171;42.694;23.318;2023-06-10T08:16:26;94610.34;;;22.82;nan
20021;BME280;10171;42.694;23.318;2023-06-10T08:18:51;94614.09;;;23.01;nan
20021;BME280;10171;42.694;23.318;2023-06-10T08:23:43;94605.19;;;22.89;nan
20021;BME280;10171;42.694;23.318;2023-06-10T08:26:09;94609.88;;;23.00;nan
20021;BME280;10171;42.694;23.318;2023-06-10T08:28:34;94599.44;;;23.14;nan
20021;BME280;10171;42.694;23.318;2023-06-10T08:31:00;94609.97;;;23.27;nan
20021;BME280;10171;42.694;23.318;2023-06-10T08:33:25;94603.38;;;23.31;nan
20021;BME280;10171;42.694;23.318;2023-06-10T08:35:51;94606.78;;;23.32;nan
20021;BME280;10171;42.694;23.318;2023-06-10T08:38:16;94594.66;;;23.45;nan
20021;BME280;10171;42.694;23.318;2023-06-10T08:40:42;94605.31;;;23.50;nan
20021;BME280;10171;42.694;23.318;2023-06-10T08:43:14;94594.72;;;23.58;nan
20021;BME280;10171;42.694;23.318;2023-06-10T08:45:43;94579.94;;;23.72;nan
20021;BME280;10171;42.694;23.318;2023-06-10T08:48:10;94596.09;;;23.81;nan
20021;BME280;10171;42.694;23.318;2023-06-10T08:50:38;94590.16;;;23.94;nan
20021;BME280;10171;42.694;23.318;2023-06-10T08:53:05;94584.94;;;24.00;nan
20021;BME280;10171;42.694;23.318;2023-06-10T08:55:33;94585.09;;;23.86;nan
20021;BME280;10171;42.694;23.318;2023-06-10T08:58:01;94581.47;;;23.87;nan
20021;BME280;10171;42.694;23.318;2023-06-10T09:00:27;94579.94;;;23.99;nan
20021;BME280;10171;42.694;23.318;2023-06-10T09:02:54;94571.44;;;23.90;nan
20021;BME280;10171;42.694;23.318;2023-06-10T09:05:20;94559.00;;;23.92;nan
20021;BME280;10171;42.694;23.318;2023-06-10T09:07:47;94560.88;;;24.05;nan
20021;BME280;10171;42.694;23.318;2023-06-10T09:10:13;94563.72;;;24.16;nan
20021;BME280;10171;42.694;23.318;2023-06-10T09:12:39;94575.59;;;24.25;nan
20021;BME280;10171;42.694;23.318;2023-06-10T09:15:06;94572.38;;;24.17;nan
20021;BME280;10171;42.694;23.318;2023-06-10T09:17:31;94574.59;;;24.20;nan
20021;BME280;10171;42.694;23.318;2023-06-10T09:19:57;94549.50;;;24.19;nan
20021;BME280;10171;42.694;23.318;2023-06-10T09:22:23;94558.50;;;24.16;nan
20021;BME280;10171;42.694;23.318;2023-06-10T09:24:49;94563.19;;;24.34;nan
20021;BME280;10171;42.694;23.318;2023-06-10T09:27:15;94558.19;;;24.45;nan
20021;BME280;10171;42.694;23.318;2023-06-10T09:32:17;94558.47;;;24.63;nan
20021;BME280;10171;42.694;23.318;2023-06-10T09:34:43;94554.88;;;24.71;nan
20021;BME280;10171;42.694;23.318;2023-06-10T09:37:09;94556.91;;;25.20;nan
20021;BME280;10171;42.694;23.318;2023-06-10T09:39:37;94550.25;;;25.44;nan
20021;BME280;10171;42.694;23.318;2023-06-10T09:42:15;94552.69;;;25.32;nan
20021;BME280;10171;42.694;23.318;2023-06-10T09:44:41;94550.84;;;24.94;nan
20021;BME280;10171;42.694;23.318;2023-06-10T09:47:06;94551.50;;;25.16;nan
20021;BME280;10171;42.694;23.318;2023-06-10T09:49:32;94547.66;;;25.12;nan
20021;BME280;10171;42.694;23.318;2023-06-10T09:51:57;94542.44;;;25.18;nan
20021;BME280;10171;42.694;23.318;2023-06-10T09:56:51;94543.16;;;25.64;nan
20021;BME280;10171;42.694;23.318;2023-06-10T10:04:29;94528.75;;;25.16;nan
20021;BME280;10171;42.694;23.318;2023-06-10T10:06:55;94529.13;;;25.45;nan
20021;BME280;10171;42.694;23.318;2023-06-10T10:11:46;94527.91;;;25.48;nan
20021;BME280;10171;42.694;23.318;2023-06-10T10:19:25;94505.22;;;25.99;nan
20021;BME280;10171;42.694;23.318;2023-06-10T10:21:54;94515.50;;;26.00;nan
20021;BME280;10171;42.694;23.318;2023-06-10T10:24:26;94520.38;;;25.90;nan
20021;BME280;10171;42.694;23.318;2023-06-10T10:26:58;94517.22;;;25.62;nan
20021;BME280;10171;42.694;23.318;2023-06-10T10:29:31;94509.00;;;25.52;nan
20021;BME280;10171;42.694;23.318;2023-06-10T10:31:59;94504.03;;;25.95;nan
20021;BME280;10171;42.694;23.318;2023-06-10T10:35:23;94515.44;;;26.07;nan
20021;BME280;10171;42.694;23.318;2023-06-10T10:37:31;94506.16;;;26.17;nan
20021;BME280;10171;42.694;23.318;2023-06-10T10:39:58;94506.13;;;26.54;nan
20021;BME280;10171;42.694;23.318;2023-06-10T10:44:51;94484.44;;;26.96;nan
20021;BME280;10171;42.694;23.318;2023-06-10T10:47:21;94489.97;;;26.88;nan
20021;BME280;10171;42.694;23.318;2023-06-10T10:49:49;94497.31;;;26.49;nan
20021;BME280;10171;42.694;23.318;2023-06-10T10:52:16;94497.13;;;26.44;nan
20021;BME280;10171;42.694;23.318;2023-06-10T10:57:19;94490.06;;;27.00;nan
20021;BME280;10171;42.694;23.318;2023-06-10T11:02:41;94490.88;;;27.25;nan
20021;BME280;10171;42.694;23.318;2023-06-10T11:05:18;94481.72;;;27.34;nan
20021;BME280;10171;42.694;23.318;2023-06-10T11:10:31;94478.84;;;27.78;nan
20021;BME280;10171;42.694;23.318;2023-06-10T11:12:57;94476.84;;;27.73;nan
20021;BME280;10171;42.694;23.318;2023-06-10T11:15:24;94471.09;;;27.47;nan
20021;BME280;10171;42.694;23.318;2023-06-10T11:18:12;94458.81;;;26.98;nan
20021;BME280;10171;42.694;23.318;2023-06-10T11:25:39;94463.44;;;26.17;nan
20021;BME280;10171;42.694;23.318;2023-06-10T11:30:57;94450.94;;;25.75;nan
20021;BME280;10171;42.694;23.318;2023-06-10T11:35:50;94441.38;;;25.49;nan
20021;BME280;10171;42.694;23.318;2023-06-10T11:40:47;94443.66;;;25.26;nan
20021;BME280;10171;42.694;23.318;2023-06-10T12:12:36;94441.84;;;27.01;nan
20021;BME280;10171;42.694;23.318;2023-06-10T12:19:55;94427.97;;;26.52;nan
20021;BME280;10171;42.694;23.318;2023-06-10T12:24:59;94422.97;;;26.13;nan
20021;BME280;10171;42.694;23.318;2023-06-10T12:27:25;94425.25;;;26.03;nan
20021;BME280;10171;42.694;23.318;2023-06-10T12:37:13;94421.19;;;25.63;nan
20021;BME280;10171;42.694;23.318;2023-06-10T12:39:40;94415.78;;;25.58;nan
20021;BME280;10171;42.694;23.318;2023-06-10T12:42:06;94399.66;;;25.67;nan
20021;BME280;10171;42.694;23.318;2023-06-10T12:44:39;94406.50;;;25.68;nan
20021;BME280;10171;42.694;23.318;2023-06-10T12:47:09;94400.72;;;25.53;nan
20021;BME280;10171;42.694;23.318;2023-06-10T12:49:36;94402.94;;;25.50;nan
20021;BME280;10171;42.694;23.318;2023-06-10T13:01:43;94416.59;;;25.58;nan
20021;BME280;10171;42.694;23.318;2023-06-10T13:06:35;94415.59;;;25.53;nan
20021;BME280;10171;42.694;23.318;2023-06-10T13:11:31;94411.25;;;25.34;nan
20021;BME280;10171;42.694;23.318;2023-06-10T13:16:22;94424.53;;;25.32;nan
20021;BME280;10171;42.694;23.318;2023-06-10T13:18:47;94445.47;;;25.26;nan
20021;BME280;10171;42.694;23.318;2023-06-10T13:21:13;94438.84;;;25.04;nan
20021;BME280;10171;42.694;23.318;2023-06-10T13:26:03;94455.59;;;24.71;nan
20021;BME280;10171;42.694;23.318;2023-06-10T13:28:29;94447.50;;;24.40;nan
20021;BME280;10171;42.694;23.318;2023-06-10T13:38:11;94450.88;;;23.55;nan
20021;BME280;10171;42.694;23.318;2023-06-10T13:40:37;94450.84;;;23.48;nan
20021;BME280;10171;42.694;23.318;2023-06-10T13:43:03;94445.25;;;23.51;nan
20021;BME280;10171;42.694;23.318;2023-06-10T13:45:28;94445.75;;;23.34;nan
20021;BME280;10171;42.694;23.318;2023-06-10T13:47:54;94444.97;;;23.06;nan
20021;BME280;10171;42.694;23.318;2023-06-10T13:50:19;94445.03;;;22.78;nan
20021;BME280;10171;42.694;23.318;2023-06-10T13:52:45;94444.00;;;22.52;nan
20021;BME280;10171;42.694;23.318;2023-06-10T13:55:10;94444.09;;;22.17;nan
20021;BME280;10171;42.694;23.318;2023-06-10T14:02:28;94451.75;;;22.25;nan
20021;BME280;10171;42.694;23.318;2023-06-10T14:04:54;94439.88;;;22.37;nan
20021;BME280;10171;42.694;23.318;2023-06-10T14:29:11;94448.13;;;22.95;nan
20021;BME280;10171;42.694;23.318;2023-06-10T14:48:39;94464.00;;;23.34;nan
20021;BME280;10171;42.694;23.318;2023-06-10T14:53:30;94450.34;;;23.25;nan
20021;BME280;10171;42.694;23.318;2023-06-10T15:00:46;94434.28;;;23.69;nan
20021;BME280;10171;42.694;23.318;2023-06-10T15:03:12;94437.16;;;23.86;nan
20021;BME280;10171;42.694;23.318;2023-06-10T15:05:37;94436.19;;;24.00;nan
20021;BME280;10171;42.694;23.318;2023-06-10T15:10:29;94442.63;;;24.04;nan
20021;BME280;10171;42.694;23.318;2023-06-10T15:20:14;94429.81;;;24.22;nan
20021;BME280;10171;42.694;23.318;2023-06-10T15:22:39;94439.22;;;24.10;nan
20021;BME280;10171;42.694;23.318;2023-06-10T15:25:05;94434.22;;;24.28;nan
20021;BME280;10171;42.694;23.318;2023-06-10T15:27:31;94432.44;;;24.35;nan
20021;BME280;10171;42.694;23.318;2023-06-10T15:32:21;94438.66;;;24.34;nan
20021;BME280;10171;42.694;23.318;2023-06-10T15:37:14;94431.44;;;24.30;nan
20021;BME280;10171;42.694;23.318;2023-06-10T15:42:05;94425.06;;;24.52;nan
20021;BME280;10171;42.694;23.318;2023-06-10T15:44:31;94441.88;;;24.36;nan
20021;BME280;10171;42.694;23.318;2023-06-10T15:54:12;94426.84;;;24.51;nan
20021;BME280;10171;42.694;23.318;2023-06-10T15:59:05;94444.69;;;24.48;nan
20021;BME280;10171;42.694;23.318;2023-06-10T16:06:21;94449.91;;;24.22;nan
20021;BME280;10171;42.694;23.318;2023-06-10T16:13:37;94445.66;;;24.08;nan
20021;BME280;10171;42.694;23.318;2023-06-10T16:16:03;94445.81;;;23.93;nan
20021;BME280;10171;42.694;23.318;2023-06-10T16:25:44;94454.50;;;24.26;nan
20021;BME280;10171;42.694;23.318;2023-06-10T16:30:35;94450.50;;;24.30;nan
20021;BME280;10171;42.694;23.318;2023-06-10T16:35:26;94453.06;;;24.04;nan
20021;BME280;10171;42.694;23.318;2023-06-10T16:37:51;94455.06;;;23.96;nan
20021;BME280;10171;42.694;23.318;2023-06-10T16:42:43;94455.50;;;24.06;nan
20021;BME280;10171;42.694;23.318;2023-06-10T16:49:59;94457.56;;;23.76;nan
20021;BME280;10171;42.694;23.318;2023-06-10T16:52:25;94461.72;;;23.58;nan
20021;BME280;10171;42.694;23.318;2023-06-10T16:59:41;94470.28;;;23.46;nan
20021;BME280;10171;42.694;23.318;2023-06-10T17:33:37;94502.56;;;22.83;nan
20021;BME280;10171;42.694;23.318;2023-06-10T17:38:28;94505.41;;;22.88;nan
20021;BME280;10171;42.694;23.318;2023-06-10T17:40:54;94510.22;;;22.91;nan
20021;BME280;10171;42.694;23.318;2023-06-10T17:43:19;94514.09;;;22.74;nan
20021;BME280;10171;42.694;23.318;2023-06-10T17:55:27;94503.97;;;22.38;nan
20021;BME280;10171;42.694;23.318;2023-06-10T17:57:54;94489.56;;;22.21;nan
20021;BME280;10171;42.694;23.318;2023-06-10T18:00:20;94488.31;;;22.17;nan